Memphis, TN (37501)

9:06 AM CST on February 27, 2017 (GMT -0600)
Tioga Environmental in the Pinch District | | Change Station

Elev 230 ft 35.15 °N, 90.05 °W | Updated 10 seconds ago

Mostly Cloudy
Mostly Cloudy
52.2 °F
Feels Like 52.2 °F
N
0.9
Wind Variable Wind from NNW
Gusts 2.5 mph

Today
High -- | Low -- °F
--% Chance of Precip.
Yesterday
High -- | Low -- °F
Precip. -- in
Pressure 30.14 in
Visibility 10.0 miles
Clouds Few 5000 ft
Few 18000 ft
Mostly Cloudy 25000 ft
Dew Point 45 °F
Humidity 76%
Rainfall 0.18 in
Snow Depth Not available.
6:31 AM 5:54 PM
New Moon, 1% visible
METAR KMEM 271454Z 15008KT 10SM FEW050 FEW180 BKN250 11/08 A3014 RMK AO2 SLP204 T01110078 51022
Pressure 30.14 in
Visibility 10.0 miles
Clouds Few 5000 ft
Few 18000 ft
Mostly Cloudy 25000 ft
Dew Point 45 °F
Humidity 76%
Rainfall 0.18 in
Snow Depth Not available.
6:31 AM 5:54 PM
New Moon, 1% visible
METAR KMEM 271454Z 15008KT 10SM FEW050 FEW180 BKN250 11/08 A3014 RMK AO2 SLP204 T01110078 51022

Get Your Daily Forecast Email!

Thanks for signing up!

Be on the lookout for a verification email in your inbox.

You'll start receiving the daily forecast at 8 AM.

×

10-Day Weather Forecast

Almanac

Astronomy

Feb. 27, 2017 Rise Set
Actual Time
Civil Twilight
Nautical Twilight
Astronomical Twilight
Moon
Length of Visible Light
Length of Day
Tomorrow will be .
, % of the Moon is Illuminated

Today's Extremes

State Highs State Lows

Community

WunderPhotos

Upload Photos

1,962,540 photos uploaded!

WunderBlog® & News

Nearby

Air Quality

  Air Quality AQ Index Pollutant
Not available.

Snow Depth

Station Depth Elevation

Earthquake Activity

City Distance Mag. Time & Date
Minimum magnitude displayed is 2.5.

Coastal Water Temperatures

Place Temperature

Stations

Nearby Weather Stations

Station Location Temp. Windchill Dew Point Humidity Wind Precip. Elev Updated Type
                   

Watches & Warnings

There are currently no watches in effect.